Boulder Creek, CA

12:42 AM PDT on September 18, 2014 (GMT -0700)
Cresta Vista | Change Station
CLOSE
Current Station
Personal Weather Station
Location: Boulder Creek, CA
Elevation: 695 ft
Nearby Weather Stations

Elev 695 ft 37.14 °N, 122.13 °W | Updated 6 seconds ago

Overcast
Overcast
62.5 °F
Feels Like 62.5 °F
N
0.0
Wind Variable Wind from SSE
Gusts 0.0 mph

Today
High -- | Low -- °F
--% Chance of Precip.
Yesterday
High -- | Low -- °F
Precip. -- in
6:53 AM 7:11 PM
Waning Crescent, 29% visible
Pressure 29.78 in
Visibility 10.0 miles
Clouds Overcast 2800 ft
Dew Point 61 °F
Humidity 94%
Rainfall 0.02 in
Snow Depth Not available.
UV 0.0 out of 12
Pollen 5.10 out of 12
PM2.5 Good
Flu Activity Not available.
SPECI KSJC 180715Z AUTO 15006KT 10SM OVC028 21/15 A2978 RMK AO2

More Conditions Fewer Conditions

Pressure 29.78 in
Visibility 10.0 miles
Clouds Overcast 2800 ft
Dew Point 61 °F
Humidity 94%
Rainfall 0.02 in
Snow Depth Not available.
UV 0.0 out of 12
Pollen 5.10 out of 12
PM2.5 Good
Flu Activity Not available.
SPECI KSJC 180715Z AUTO 15006KT 10SM OVC028 21/15 A2978 RMK AO2

More Conditions Fewer Conditions

10-Day Weather Forecast

Almanac

Astronomy

Sep. 18, 2014 Rise Set
Actual Time 6:53 AM PDT 7:11 PM PDT
Civil Twilight 6:27 AM PDT 7:37 PM PDT
Nautical Twilight 5:56 AM PDT 8:07 PM PDT
Astronomical Twilight 5:25 AM PDT 8:38 PM PDT
Moon 1:55 AM PDT 4:01 PM PDT
Length of Visible Light 13h 10m
Length of Day
12h 18m
Tomorrow will be 2m 21s shorter.
Waning Crescent, 29% of the Moon is Illuminated
Today
Waning Crescent
Sep 24
New
Oct 1
First Quarter
Oct 8
Full
Oct 15
Last Quarter

Today's Extremes

State Highs State Lows

Community

WunderPhotos

Upload Photos

1,754,299 photos uploaded!

Nearby

Air Quality

  Air Quality AQ Index Pollutant
Yesterday Good
OZONE
Yesterday Good
PM2.5
Current Good
PM2.5
Wednesday Good
OZONE
Thursday Good
OZONE
Friday Good
OZONE
Saturday Good
OZONE
Sunday Good
OZONE
Monday Good
OZONE

Snow Depth

Station Depth Elevation
Echo Peak 1 in 7800 ft
Hagan's Meadow 0 in 8000 ft
Tahoe City Cross 0 in 6750 ft
Summit Meadow 0 in 9122 ft
Spratt Creek 0 in 6200 ft

Earthquake Activity

City Distance Mag. Time & Date
The Geysers, California 115 miles 2.5 11:29 PM PDT
2014-09-17
Cobb, California 118 miles 2.7 1:23 PM PDT
2014-09-16
Minimum magnitude displayed is 2.5.

Coastal Water Temperatures

Place Temperature
Monterey, CA 62.1 °F
Redwood City, CA 73.0 °F

Nearby Weather Stations